Cape Bata — V7EF2 — position and weather

sailwx.info

Track history (hours):
 
Tides and Currents Weather Stations Pressure Air Temp Water Temp Dewpoint Dewpoint Depression Visibility Wind Speed Wind Dir Waves Ship Positions

Cape Bata

Last reported at 2015-Apr-22 15:33 UTC. Time now 2015-May-25 21:39 UTC.
Position S 35°56' E 175°34'.
Warning: this ship's position is 33 days out of date.

Length 274 m; draft 14.1 m.

Type: Tanker. MMSI: 538090162.

Date/timePositionNaut miles runAvg speedWind from/ knotsBaromVisibWave heightAir tempDewpointWater temp
2015-Apr-22 15:33S 35°56' E 175°34'3710.9
2015-Apr-22 12:09S 35°51' E 174°49'  
2015-Apr-15 18:17S 39°02' E 147°25'1012.5
2015-Apr-15 17:28S 39°05' E 147°12'1212.9
2015-Apr-15 16:33S 39°09' E 146°58'1312.9
2015-Apr-15 15:33S 39°14' E 146°43'1312.7
2015-Apr-15 14:33S 39°16' E 146°27'1313.1
2015-Apr-15 13:33S 39°15' E 146°10'1313.0
2015-Apr-15 12:33S 39°14' E 145°53'17513.5
2015-Apr-14 23:33S 38°54' E 142°09'1413.4
2015-Apr-14 22:32S 38°52' E 141°52'1313.4
2015-Apr-14 21:33S 38°49' E 141°35'1313.4
2015-Apr-14 20:32S 38°47' E 141°18'  
Track history (hours):
 
Tides and Currents Weather Stations Pressure Air Temp Water Temp Dewpoint Dewpoint Depression Visibility Wind Speed Wind Dir Waves Ship Positions

Cape Bata

Last reported at 2015-Apr-22 15:33 UTC. Time now 2015-May-25 21:39 UTC.
Position S 35°56' E 175°34'.
Warning: this ship's position is 33 days out of date.

Length 274 m; draft 14.1 m.

Type: Tanker. MMSI: 538090162.

Date/timePositionNaut miles runAvg speedWind from/ knotsBaromVisibWave heightAir tempDewpointWater temp
2015-Apr-22 15:33S 35°56' E 175°34'3710.9
2015-Apr-22 12:09S 35°51' E 174°49'  
2015-Apr-15 18:17S 39°02' E 147°25'1012.5
2015-Apr-15 17:28S 39°05' E 147°12'1212.9
2015-Apr-15 16:33S 39°09' E 146°58'1312.9
2015-Apr-15 15:33S 39°14' E 146°43'1312.7
2015-Apr-15 14:33S 39°16' E 146°27'1313.1
2015-Apr-15 13:33S 39°15' E 146°10'1313.0
2015-Apr-15 12:33S 39°14' E 145°53'17513.5
2015-Apr-14 23:33S 38°54' E 142°09'1413.4
2015-Apr-14 22:32S 38°52' E 141°52'1313.4
2015-Apr-14 21:33S 38°49' E 141°35'1313.4
2015-Apr-14 20:32S 38°47' E 141°18'  

Dump ship's entire track history